Time;durP1;ratioP1;P1;durP2;ratioP2;P2;SDS_P1;SDS_P2;PMS_P1;PMS_P2;Temp;Humidity;BMP_temperature;BMP_pressure;BME280_temperature;BME280_humidity;BME280_pressure;Samples;Min_cycle;Max_cycle;Signal;HPM_P1;HPM_P2
2022/08/25 00:01:59;;;;;;;2.40;0.90;;;15.00;55.10;;;;;;5036989;28;20587;-75
2022/08/25 00:04:28;;;;;;;1.73;0.90;;;15.00;55.10;;;;;;5043815;28;20307;-77
2022/08/25 00:06:55;;;;;;;1.53;0.80;;;15.10;55.70;;;;;;5052284;28;20610;-85
2022/08/25 00:09:26;;;;;;;3.50;0.80;;;15.00;55.30;;;;;;5050489;28;20197;-78
2022/08/25 00:11:54;;;;;;;1.47;0.90;;;15.20;55.10;;;;;;5037696;28;20619;-77
2022/08/25 00:14:25;;;;;;;3.10;1.57;;;15.40;54.20;;;;;;5033584;28;20181;-74
2022/08/25 00:16:56;;;;;;;1.33;0.80;;;15.70;54.30;;;;;;5013284;28;20259;-77
2022/08/25 00:19:30;;;;;;;4.70;0.80;;;15.70;53.50;;;;;;5012840;28;20260;-77
2022/08/25 00:21:59;;;;;;;3.23;1.10;;;15.90;53.60;;;;;;5036408;28;20215;-77
2022/08/25 00:24:27;;;;;;;1.67;0.90;;;16.20;52.60;;;;;;5053128;28;20216;-80
2022/08/25 00:26:56;;;;;;;1.87;0.80;;;16.20;53.30;;;;;;5052971;28;20200;-79
2022/08/25 00:29:25;;;;;;;2.10;0.87;;;16.50;52.30;;;;;;5043565;28;20209;-76
2022/08/25 00:31:53;;;;;;;1.10;0.87;;;16.70;51.70;;;;;;5052941;28;20174;-83
2022/08/25 00:34:28;;;;;;;1.93;0.77;;;16.70;50.90;;;;;;5053153;28;20250;-76
2022/08/25 00:36:56;;;;;;;0.90;0.70;;;16.60;51.70;;;;;;5052488;28;20569;-77
2022/08/25 00:39:24;;;;;;;1.30;0.80;;;16.60;51.70;;;;;;5034925;28;20226;-76
2022/08/25 00:41:55;;;;;;;1.13;1.00;;;16.70;51.50;;;;;;5033502;28;20206;-75
2022/08/25 00:44:23;;;;;;;0.70;0.70;;;16.90;51.60;;;;;;5046911;28;20246;-79
2022/08/25 00:46:54;;;;;;;0.73;0.60;;;16.90;51.20;;;;;;5029883;28;20187;-74
2022/08/25 00:49:28;;;;;;;1.63;0.70;;;17.00;51.10;;;;;;5038024;28;20175;-77
2022/08/25 00:52:20;;;;;;;0.70;0.70;;;17.00;51.10;;;;;;5013174;28;20639;-77
2022/08/25 00:54:53;;;;;;;1.23;0.70;;;17.10;50.90;;;;;;5033037;28;20198;-74
2022/08/25 00:57:25;;;;;;;1.83;0.70;;;17.30;50.80;;;;;;5037764;28;20196;-73
2022/08/25 00:59:53;;;;;;;0.80;0.70;;;17.40;49.60;;;;;;5032937;28;20184;-76
2022/08/25 01:02:22;;;;;;;0.80;0.80;;;17.50;49.30;;;;;;5034532;28;20302;-75
2022/08/25 01:04:50;;;;;;;1.10;0.73;;;17.70;49.00;;;;;;5034979;28;20543;-74
2022/08/25 01:07:21;;;;;;;0.57;0.57;;;17.80;49.20;;;;;;5036409;28;20342;-77
2022/08/25 01:09:52;;;;;;;0.60;0.60;;;17.90;47.60;;;;;;5038667;28;20206;-76
2022/08/25 01:12:20;;;;;;;0.50;0.50;;;18.20;47.60;;;;;;5032654;28;20573;-78
2022/08/25 01:14:49;;;;;;;0.53;0.50;;;18.30;47.10;;;;;;5039797;28;20265;-80
2022/08/25 01:17:17;;;;;;;4.27;0.60;;;18.60;45.90;;;;;;5036312;28;20509;-75
2022/08/25 01:19:45;;;;;;;2.17;0.60;;;18.90;45.70;;;;;;5032244;28;20192;-75
2022/08/25 01:22:12;;;;;;;0.50;0.50;;;19.00;45.60;;;;;;5030814;28;20191;-79
2022/08/25 01:24:54;;;;;;;1.70;0.60;;;18.70;44.80;;;;;;5031916;28;20542;-74
2022/08/25 01:27:21;;;;;;;3.70;0.60;;;18.80;45.70;;;;;;5028061;28;20638;-78
2022/08/25 01:29:49;;;;;;;5.80;0.60;;;18.90;45.20;;;;;;5035463;28;20185;-77
2022/08/25 01:32:16;;;;;;;2.47;0.70;;;18.90;45.20;;;;;;5034437;28;20188;-76
2022/08/25 01:34:45;;;;;;;0.60;0.60;;;18.80;44.70;;;;;;5032096;28;20194;-74
2022/08/25 01:37:15;;;;;;;0.90;0.50;;;18.80;45.50;;;;;;5031639;28;20260;-75
2022/08/25 01:39:43;;;;;;;0.40;0.40;;;18.70;44.90;;;;;;5027937;28;20702;-75
2022/08/25 01:42:32;;;;;;;0.60;0.50;;;18.70;45.00;;;;;;5037608;28;20190;-75
2022/08/25 01:45:00;;;;;;;0.83;0.60;;;18.60;44.90;;;;;;5030317;28;20267;-74
2022/08/25 01:47:27;;;;;;;0.77;0.50;;;18.80;44.40;;;;;;5032002;28;20176;-76
2022/08/25 01:49:54;;;;;;;0.50;0.50;;;18.90;44.00;;;;;;5035420;28;20188;-74
2022/08/25 01:52:36;;;;;;;1.57;0.50;;;19.20;44.30;;;;;;5033482;28;20189;-75
2022/08/25 01:55:04;;;;;;;1.30;0.50;;;19.30;42.30;;;;;;5037692;28;20646;-74
2022/08/25 01:57:32;;;;;;;0.63;0.60;;;19.30;43.30;;;;;;5033068;28;20721;-77
2022/08/25 02:00:00;;;;;;;0.50;0.50;;;19.30;42.80;;;;;;5033114;28;20188;-74
2022/08/25 02:02:27;;;;;;;2.20;0.50;;;19.40;43.30;;;;;;5039319;28;20228;-75
2022/08/25 02:04:55;;;;;;;0.70;0.70;;;19.50;43.40;;;;;;5032986;28;20223;-75
2022/08/25 02:07:22;;;;;;;3.53;0.73;;;19.30;42.50;;;;;;5037953;28;20650;-75
2022/08/25 02:09:49;;;;;;;3.07;0.80;;;19.00;43.60;;;;;;5032362;28;20243;-75
2022/08/25 02:12:17;;;;;;;1.47;0.60;;;18.80;44.40;;;;;;5031860;28;20216;-76
2022/08/25 02:14:44;;;;;;;4.03;1.03;;;18.50;44.60;;;;;;5038938;28;20239;-75
2022/08/25 02:17:12;;;;;;;1.63;0.73;;;18.30;45.20;;;;;;5037983;28;20189;-75
2022/08/25 02:19:39;;;;;;;0.67;0.63;;;18.20;45.20;;;;;;5037640;28;20225;-75
2022/08/25 02:22:07;;;;;;;1.80;1.10;;;18.10;45.50;;;;;;5035890;28;20196;-74
2022/08/25 02:24:34;;;;;;;2.40;1.47;;;18.00;46.20;;;;;;5042458;28;20219;-75
2022/08/25 02:27:02;;;;;;;1.90;1.00;;;18.00;46.70;;;;;;5039545;28;20188;-76
2022/08/25 02:29:30;;;;;;;2.10;0.77;;;18.00;47.60;;;;;;5036738;28;20204;-77
2022/08/25 02:31:57;;;;;;;1.67;0.60;;;17.80;46.70;;;;;;5029375;28;20659;-75
2022/08/25 02:34:25;;;;;;;1.10;0.90;;;17.80;47.40;;;;;;5035218;28;20196;-76
2022/08/25 02:36:52;;;;;;;2.73;0.67;;;17.80;48.40;;;;;;5043521;28;20658;-75
2022/08/25 02:39:19;;;;;;;0.87;0.60;;;17.90;48.30;;;;;;5037990;28;20219;-76
2022/08/25 02:41:46;;;;;;;0.50;0.50;;;18.10;47.50;;;;;;5035554;28;20169;-74
2022/08/25 02:44:14;;;;;;;0.70;0.60;;;18.40;46.50;;;;;;5038845;28;20690;-77
2022/08/25 02:46:42;;;;;;;4.80;0.70;;;18.70;46.00;;;;;;5038389;28;20168;-75
2022/08/25 02:49:09;;;;;;;0.93;0.50;;;18.90;45.70;;;;;;5038192;28;20192;-74
2022/08/25 02:51:36;;;;;;;0.50;0.50;;;19.10;45.60;;;;;;5037187;28;20168;-75
2022/08/25 02:54:05;;;;;;;0.60;0.60;;;19.20;45.00;;;;;;5036721;28;20180;-76
2022/08/25 02:56:33;;;;;;;0.50;0.50;;;19.30;45.40;;;;;;5039666;28;20196;-74
2022/08/25 02:59:01;;;;;;;1.33;0.60;;;18.90;45.20;;;;;;5035488;28;20192;-72
2022/08/25 03:01:31;;;;;;;0.80;0.50;;;18.40;46.20;;;;;;5038575;28;20181;-75
2022/08/25 03:04:00;;;;;;;0.43;0.43;;;18.10;47.10;;;;;;5035068;28;20216;-78
2022/08/25 03:06:28;;;;;;;0.50;0.50;;;18.00;48.00;;;;;;5040154;28;20180;-79
2022/08/25 03:08:56;;;;;;;0.87;0.60;;;17.90;48.40;;;;;;5037772;28;20677;-75
2022/08/25 03:11:24;;;;;;;0.47;0.47;;;17.80;48.20;;;;;;5041651;28;20654;-77
2022/08/25 03:13:52;;;;;;;1.47;0.73;;;17.60;48.70;;;;;;5036857;28;20184;-76
2022/08/25 03:16:20;;;;;;;1.30;0.90;;;17.50;49.40;;;;;;5032456;28;20184;-76
2022/08/25 03:18:48;;;;;;;2.40;1.00;;;17.40;50.10;;;;;;5037469;28;20225;-76
2022/08/25 03:21:16;;;;;;;1.90;1.00;;;17.30;50.20;;;;;;5039723;28;20235;-78
2022/08/25 03:23:45;;;;;;;1.90;1.17;;;17.20;50.60;;;;;;5035094;28;20219;-76
2022/08/25 03:28:58;;;;;;;3.03;1.40;;;17.00;51.60;;;;;;5035487;28;20194;-80
2022/08/25 03:31:26;;;;;;;4.47;1.20;;;16.90;51.70;;;;;;5034160;28;20196;-78
2022/08/25 03:33:54;;;;;;;6.77;1.17;;;16.90;51.10;;;;;;5035542;28;20666;-80
2022/08/25 03:36:22;;;;;;;3.90;1.20;;;16.80;50.30;;;;;;5041518;28;20245;-79
2022/08/25 03:38:49;;;;;;;3.37;0.83;;;16.90;49.20;;;;;;5044262;28;20527;-81
2022/08/25 03:41:20;;;;;;;3.17;1.17;;;16.90;49.10;;;;;;5037505;28;20199;-81
2022/08/25 03:43:48;;;;;;;1.87;0.83;;;16.80;48.40;;;;;;5035914;28;20207;-78
2022/08/25 03:46:29;;;;;;;3.43;1.07;;;16.80;48.10;;;;;;5035397;28;20184;-77
2022/08/25 03:49:00;;;;;;;4.43;1.30;;;16.80;48.30;;;;;;5034824;28;20262;-81
2022/08/25 03:51:34;;;;;;;2.00;0.90;;;16.80;49.70;;;;;;5033485;28;20741;-82
2022/08/25 03:54:03;;;;;;;2.60;0.87;;;16.80;49.40;;;;;;5032105;28;20187;-79
2022/08/25 03:56:31;;;;;;;2.87;0.90;;;17.00;49.30;;;;;;5034585;28;20210;-78
2022/08/25 03:58:58;;;;;;;2.77;0.90;;;17.20;49.00;;;;;;5034325;28;20211;-83
2022/08/25 04:01:26;;;;;;;1.97;0.97;;;17.30;48.50;;;;;;5033380;28;20191;-80
2022/08/25 04:03:54;;;;;;;3.30;1.03;;;17.30;48.10;;;;;;5025644;28;20224;-83
2022/08/25 04:06:22;;;;;;;1.53;0.80;;;17.40;47.90;;;;;;5030432;28;20180;-78
2022/08/25 04:08:51;;;;;;;0.70;0.70;;;17.40;48.70;;;;;;5037795;28;20271;-77
2022/08/25 04:11:21;;;;;;;1.77;0.80;;;17.30;49.00;;;;;;5037612;28;20185;-81
2022/08/25 04:13:50;;;;;;;2.83;0.70;;;17.30;49.30;;;;;;5026551;28;20192;-87
2022/08/25 04:16:21;;;;;;;5.47;0.87;;;17.30;49.00;;;;;;5030653;28;20251;-84
2022/08/25 04:18:52;;;;;;;2.50;0.67;;;17.30;49.60;;;;;;5032596;28;20257;-77
2022/08/25 04:21:20;;;;;;;2.50;0.97;;;17.30;50.10;;;;;;5034628;28;20195;-84
2022/08/25 04:23:48;;;;;;;3.63;0.70;;;17.20;50.80;;;;;;5044715;28;20215;-77
2022/08/25 04:26:20;;;;;;;1.57;0.80;;;17.20;51.20;;;;;;5040728;28;20262;-81
2022/08/25 04:28:48;;;;;;;1.53;0.60;;;17.10;51.30;;;;;;5043218;28;20178;-82
2022/08/25 04:31:17;;;;;;;1.93;0.80;;;17.00;51.50;;;;;;5039513;28;20191;-76
2022/08/25 04:33:47;;;;;;;2.83;0.80;;;17.00;51.60;;;;;;5041680;28;20269;-76
2022/08/25 04:36:16;;;;;;;1.13;0.80;;;16.90;51.70;;;;;;5040319;28;20250;-74
2022/08/25 04:38:44;;;;;;;1.67;0.80;;;16.80;51.60;;;;;;5033084;28;20195;-75
2022/08/25 04:41:14;;;;;;;3.30;0.77;;;16.80;51.20;;;;;;5038843;28;20201;-76
2022/08/25 04:43:43;;;;;;;2.57;0.80;;;16.70;51.20;;;;;;5038446;28;20227;-77
2022/08/25 04:46:17;;;;;;;4.27;1.07;;;16.70;50.80;;;;;;5033890;28;20190;-77
2022/08/25 04:48:45;;;;;;;4.13;0.80;;;16.70;51.90;;;;;;5034044;28;20210;-76
2022/08/25 04:51:16;;;;;;;2.83;0.90;;;16.70;51.20;;;;;;5029820;28;20185;-76
2022/08/25 04:53:44;;;;;;;4.10;0.87;;;16.60;50.40;;;;;;5017309;28;20177;-78
2022/08/25 04:56:15;;;;;;;3.70;1.37;;;16.50;50.90;;;;;;5031547;28;20203;-79
2022/08/25 04:58:44;;;;;;;3.20;0.83;;;16.50;50.70;;;;;;5031261;28;20188;-80
2022/08/25 05:01:15;;;;;;;0.80;0.70;;;16.50;51.30;;;;;;5033469;28;20634;-77
2022/08/25 05:03:43;;;;;;;0.80;0.70;;;16.40;51.60;;;;;;5029570;28;20237;-76
2022/08/25 05:06:10;;;;;;;1.53;0.80;;;16.40;51.80;;;;;;5032282;28;20226;-81
2022/08/25 05:08:38;;;;;;;0.70;0.70;;;16.40;52.50;;;;;;5029984;28;20193;-81
2022/08/25 05:11:07;;;;;;;1.80;0.80;;;16.30;52.20;;;;;;5031523;28;20865;-78
2022/08/25 05:13:35;;;;;;;2.07;0.77;;;16.40;52.50;;;;;;5027995;28;20184;-81
2022/08/25 05:16:04;;;;;;;1.20;0.87;;;16.30;52.70;;;;;;5031175;28;20191;-84
2022/08/25 05:18:33;;;;;;;4.87;1.00;;;16.40;52.80;;;;;;5031202;28;20588;-79
2022/08/25 05:21:06;;;;;;;1.53;0.80;;;16.40;53.00;;;;;;5031999;28;20284;-74
2022/08/25 05:23:35;;;;;;;1.93;0.90;;;16.40;53.10;;;;;;5035280;28;20221;-84
2022/08/25 05:26:09;;;;;;;3.33;0.83;;;16.40;52.80;;;;;;5030417;28;20192;-79
2022/08/25 05:28:40;;;;;;;1.87;0.90;;;16.30;53.50;;;;;;5034117;28;20189;-78
2022/08/25 05:31:10;;;;;;;2.83;0.80;;;16.30;53.30;;;;;;5034002;28;20205;-80
2022/08/25 05:33:38;;;;;;;1.53;0.90;;;16.30;54.10;;;;;;5032106;28;20195;-79
2022/08/25 05:36:08;;;;;;;1.80;0.70;;;16.30;54.00;;;;;;5034912;28;20865;-76
2022/08/25 05:38:36;;;;;;;6.00;2.57;;;16.30;54.50;;;;;;5030347;28;20182;-78
2022/08/25 05:41:06;;;;;;;2.53;1.13;;;16.20;55.20;;;;;;5030270;28;20247;-83
2022/08/25 05:43:34;;;;;;;2.17;1.20;;;16.20;55.10;;;;;;5034098;28;20219;-78
2022/08/25 05:46:01;;;;;;;3.77;0.90;;;16.20;55.60;;;;;;5028629;28;20193;-78
2022/08/25 05:48:28;;;;;;;1.43;0.70;;;16.20;55.80;;;;;;5034193;28;20770;-79
2022/08/25 05:50:58;;;;;;;2.43;0.83;;;16.20;56.10;;;;;;5036296;28;20201;-79
2022/08/25 05:53:27;;;;;;;1.20;0.90;;;16.20;56.70;;;;;;5034061;28;20187;-74
2022/08/25 05:55:57;;;;;;;1.30;0.80;;;16.20;56.90;;;;;;5037107;28;20273;-76
2022/08/25 05:58:29;;;;;;;3.00;1.10;;;16.30;57.10;;;;;;5035332;28;20641;-76
2022/08/25 06:02:39;;;;;;;3.03;0.80;;;16.30;57.40;;;;;;5034520;28;20261;-75
2022/08/25 06:03:46;;;;;;;1.20;0.80;;;16.30;58.00;;;;;;5032270;28;20221;-75
2022/08/25 06:06:15;;;;;;;4.27;1.03;;;16.30;58.10;;;;;;5035690;28;20212;-75
2022/08/25 06:08:43;;;;;;;3.50;1.33;;;16.30;58.40;;;;;;5025500;28;20188;-78
2022/08/25 06:11:12;;;;;;;5.40;0.87;;;16.30;58.20;;;;;;5033180;28;20275;-77
2022/08/25 06:13:40;;;;;;;3.93;1.00;;;16.30;57.90;;;;;;5031477;28;20188;-76
2022/08/25 06:16:07;;;;;;;6.53;1.10;;;16.40;57.80;;;;;;5033759;28;20175;-76
2022/08/25 06:18:35;;;;;;;4.33;1.10;;;16.40;57.80;;;;;;5032531;28;20887;-77
2022/08/25 06:21:11;;;;;;;2.77;1.10;;;16.40;58.30;;;;;;5036474;28;20315;-77
2022/08/25 06:23:39;;;;;;;3.77;1.60;;;16.40;57.80;;;;;;5028058;28;20217;-76
2022/08/25 06:26:09;;;;;;;3.80;1.50;;;16.40;57.60;;;;;;5032248;28;20191;-76
2022/08/25 06:28:37;;;;;;;2.40;1.07;;;16.40;57.50;;;;;;5035905;28;20186;-79
2022/08/25 06:31:04;;;;;;;2.20;1.33;;;16.40;57.80;;;;;;5032615;28;20641;-77
2022/08/25 06:33:32;;;;;;;3.10;1.27;;;16.40;57.20;;;;;;5034284;28;20567;-75
2022/08/25 06:36:00;;;;;;;2.30;1.10;;;16.40;57.30;;;;;;5033763;28;20191;-77
2022/08/25 06:38:28;;;;;;;4.97;1.83;;;16.30;57.10;;;;;;5031857;28;20226;-79
2022/08/25 06:40:56;;;;;;;2.00;1.07;;;16.30;57.30;;;;;;5032553;28;20258;-80
2022/08/25 06:43:24;;;;;;;1.63;1.10;;;16.30;57.40;;;;;;5035185;28;20197;-82
2022/08/25 06:45:52;;;;;;;3.23;1.20;;;16.40;57.20;;;;;;5035191;28;20179;-80
2022/08/25 06:48:20;;;;;;;1.07;1.00;;;16.30;57.20;;;;;;5028171;28;20271;-80
2022/08/25 06:50:47;;;;;;;4.53;1.00;;;16.40;57.10;;;;;;5029146;28;20195;-78
2022/08/25 06:53:14;;;;;;;7.00;1.27;;;16.30;57.20;;;;;;5030949;28;20188;-78
2022/08/25 06:55:42;;;;;;;5.20;1.10;;;16.30;57.40;;;;;;5031486;28;20237;-78
2022/08/25 06:58:10;;;;;;;5.47;1.07;;;16.30;57.50;;;;;;5031363;28;20200;-78
2022/08/25 07:00:38;;;;;;;2.33;1.00;;;16.30;57.00;;;;;;5032454;28;20238;-78
2022/08/25 07:03:05;;;;;;;2.90;1.23;;;16.30;57.30;;;;;;5025084;28;20215;-78
2022/08/25 07:05:32;;;;;;;2.93;1.10;;;16.30;57.20;;;;;;5032946;28;20183;-78
2022/08/25 07:08:00;;;;;;;3.03;1.20;;;16.30;57.40;;;;;;5029979;28;20250;-78
2022/08/25 07:10:27;;;;;;;3.07;1.10;;;16.30;57.60;;;;;;5029843;28;20194;-76
2022/08/25 07:12:55;;;;;;;2.37;1.03;;;16.20;57.80;;;;;;5034024;28;20223;-78
2022/08/25 07:15:22;;;;;;;5.90;1.30;;;16.20;57.80;;;;;;5035403;28;20191;-78
2022/08/25 07:17:50;;;;;;;2.57;1.40;;;16.00;58.20;;;;;;5035293;28;20241;-77
2022/08/25 07:20:18;;;;;;;4.13;1.23;;;15.90;58.70;;;;;;5028487;28;20192;-78
2022/08/25 07:22:46;;;;;;;2.67;1.10;;;15.70;58.80;;;;;;5031887;28;20245;-79
2022/08/25 07:25:13;;;;;;;4.97;1.40;;;15.70;59.10;;;;;;5026106;28;20670;-80
2022/08/25 07:27:40;;;;;;;2.77;1.10;;;15.60;59.30;;;;;;5032694;28;20219;-79
2022/08/25 07:30:08;;;;;;;4.93;1.10;;;15.50;59.70;;;;;;5036232;28;20188;-79
2022/08/25 07:32:36;;;;;;;2.70;1.00;;;15.50;59.70;;;;;;5031438;28;20183;-77
2022/08/25 07:35:16;;;;;;;1.33;1.10;;;15.40;60.00;;;;;;5026608;28;20190;-81
2022/08/25 07:37:50;;;;;;;4.37;1.67;;;15.30;60.20;;;;;;5039318;28;20188;-78
2022/08/25 07:40:21;;;;;;;4.80;1.77;;;15.30;60.40;;;;;;5035276;28;20232;-77
2022/08/25 07:42:53;;;;;;;4.73;1.60;;;15.20;61.10;;;;;;5031554;28;20208;-78
2022/08/25 07:45:32;;;;;;;2.07;1.70;;;15.10;61.20;;;;;;5034201;28;20243;-78
2022/08/25 07:48:05;;;;;;;4.97;1.93;;;15.00;61.70;;;;;;5033256;28;20545;-78
2022/08/25 07:50:37;;;;;;;2.97;1.70;;;14.90;62.00;;;;;;5033236;28;20193;-77
2022/08/25 07:53:05;;;;;;;2.80;1.63;;;14.80;62.30;;;;;;5040474;28;20192;-78
2022/08/25 07:55:35;;;;;;;3.00;1.73;;;14.80;62.70;;;;;;5034261;28;20241;-78
2022/08/25 07:58:07;;;;;;;5.03;1.80;;;14.80;63.20;;;;;;5038825;28;20193;-78
2022/08/25 08:00:36;;;;;;;3.30;1.53;;;14.60;63.40;;;;;;5037104;28;20267;-78
2022/08/25 08:03:06;;;;;;;3.33;1.80;;;14.50;64.00;;;;;;5033944;28;20307;-78
2022/08/25 08:05:35;;;;;;;3.77;1.80;;;14.30;64.70;;;;;;5036549;28;20188;-77
2022/08/25 08:08:03;;;;;;;5.27;1.67;;;14.20;65.40;;;;;;5036963;28;20596;-77
2022/08/25 08:10:31;;;;;;;8.27;2.30;;;14.20;65.80;;;;;;5034311;28;20189;-77
2022/08/25 08:12:58;;;;;;;7.03;2.93;;;14.10;66.30;;;;;;5038390;28;20191;-77
2022/08/25 08:15:26;;;;;;;9.13;3.57;;;14.10;66.70;;;;;;5034799;28;20186;-78
2022/08/25 08:17:53;;;;;;;10.87;3.60;;;14.00;67.20;;;;;;5036070;28;20263;-77
2022/08/25 08:20:21;;;;;;;6.77;3.13;;;14.00;67.30;;;;;;5036911;28;20708;-78
2022/08/25 08:22:48;;;;;;;9.37;4.60;;;14.00;67.40;;;;;;5041006;28;20204;-77
2022/08/25 08:25:15;;;;;;;9.33;4.27;;;13.90;67.70;;;;;;5037353;28;20180;-79
2022/08/25 08:27:44;;;;;;;9.33;4.80;;;13.80;68.10;;;;;;5031741;28;20254;-77
2022/08/25 08:30:13;;;;;;;14.03;5.20;;;13.80;68.40;;;;;;5041529;28;20213;-79
2022/08/25 08:32:40;;;;;;;8.97;4.50;;;13.80;68.60;;;;;;5030683;28;20180;-80
2022/08/25 08:35:08;;;;;;;10.27;4.30;;;13.80;68.90;;;;;;5038638;28;20186;-79
2022/08/25 08:37:40;;;;;;;8.30;4.00;;;13.80;69.00;;;;;;5031238;28;20236;-79
2022/08/25 08:40:09;;;;;;;11.30;4.73;;;13.80;69.50;;;;;;5031001;28;20326;-80
2022/08/25 08:43:06;;;;;;;7.43;4.10;;;13.80;69.40;;;;;;5034685;28;20181;-79
2022/08/25 08:45:45;;;;;;;9.83;3.90;;;13.80;69.30;;;;;;5037131;28;20543;-79
2022/08/25 08:48:15;;;;;;;11.23;3.57;;;13.80;69.70;;;;;;5034334;28;20192;-79
2022/08/25 08:51:08;;;;;;;9.07;3.87;;;13.90;69.50;;;;;;5037494;28;20192;-80
2022/08/25 08:53:48;;;;;;;9.33;4.37;;;13.80;69.70;;;;;;5036135;28;20255;-80
2022/08/25 08:56:24;;;;;;;10.10;4.50;;;13.90;69.60;;;;;;5036211;28;20649;-79
2022/08/25 08:59:03;;;;;;;8.70;4.43;;;13.90;69.70;;;;;;5040080;28;20196;-80
2022/08/25 09:01:46;;;;;;;9.40;3.00;;;14.00;69.40;;;;;;5030301;28;20663;-80
2022/08/25 09:04:26;;;;;;;13.13;5.23;;;14.00;69.70;;;;;;5030384;28;20584;-79
2022/08/25 09:06:55;;;;;;;8.53;4.93;;;14.10;69.60;;;;;;5030751;28;20168;-79
2022/08/25 09:09:29;;;;;;;6.73;3.60;;;14.00;69.70;;;;;;5036126;28;20191;-81
2022/08/25 09:12:18;;;;;;;6.80;2.60;;;14.10;70.00;;;;;;5036320;28;20179;-77
2022/08/25 09:15:12;;;;;;;3.93;2.37;;;14.20;70.10;;;;;;5035385;28;20242;-78
2022/08/25 09:17:55;;;;;;;5.63;3.00;;;14.20;69.80;;;;;;5034420;28;20204;-78
2022/08/25 09:20:22;;;;;;;4.60;2.73;;;14.30;69.70;;;;;;5042612;28;20176;-79
2022/08/25 09:22:52;;;;;;;5.90;2.67;;;14.30;69.60;;;;;;5035666;28;20285;-78
2022/08/25 09:25:29;;;;;;;8.57;3.70;;;14.30;69.60;;;;;;5039600;28;20641;-79
2022/08/25 09:28:05;;;;;;;13.63;5.47;;;14.40;69.50;;;;;;5025720;28;20191;-80
2022/08/25 09:31:01;;;;;;;13.43;6.30;;;14.30;69.70;;;;;;5029912;28;20181;-78
2022/08/25 09:33:31;;;;;;;8.90;4.63;;;14.30;69.80;;;;;;5030357;28;20279;-78
2022/08/25 09:35:59;;;;;;;9.70;4.53;;;14.20;70.00;;;;;;5033870;28;20203;-79
2022/08/25 09:38:30;;;;;;;9.83;4.40;;;14.20;70.20;;;;;;5034097;28;20204;-78
2022/08/25 09:41:00;;;;;;;5.20;3.37;;;14.20;70.60;;;;;;5031761;28;20228;-77
2022/08/25 09:43:35;;;;;;;7.40;3.60;;;14.20;71.40;;;;;;5031544;28;20242;-78
2022/08/25 09:46:22;;;;;;;11.30;4.13;;;14.20;71.90;;;;;;5023763;28;20580;-76
2022/08/25 09:48:54;;;;;;;7.43;2.40;;;14.20;74.40;;;;;;5028490;28;20180;-75
2022/08/25 09:51:35;;;;;;;10.20;1.80;;;14.10;76.90;;;;;;5040693;28;20176;-75
2022/08/25 09:54:16;;;;;;;3.63;1.60;;;13.80;78.10;;;;;;5047957;28;20266;-75
2022/08/25 09:57:00;;;;;;;5.30;2.40;;;13.50;76.60;;;;;;5035476;28;20180;-76
2022/08/25 09:59:29;;;;;;;4.93;1.83;;;13.40;77.70;;;;;;5044877;28;20647;-76
2022/08/25 10:01:59;;;;;;;7.17;2.40;;;13.30;78.00;;;;;;5032498;28;20235;-76
2022/08/25 10:04:37;;;;;;;3.70;1.93;;;13.30;79.60;;;;;;5043898;28;20688;-77
2022/08/25 10:07:31;;;;;;;3.87;2.00;;;13.30;80.50;;;;;;5032628;28;20219;-76
2022/08/25 10:10:01;;;;;;;4.17;1.40;;;13.20;80.10;;;;;;5042457;28;20642;-76
2022/08/25 10:12:39;;;;;;;2.87;2.07;;;13.30;80.80;;;;;;5051086;28;20267;-76
2022/08/25 10:15:36;;;;;;;5.00;2.57;;;13.20;81.70;;;;;;5051058;28;20184;-76
2022/08/25 10:18:16;;;;;;;4.60;2.50;;;13.20;82.20;;;;;;5050393;28;20172;-75
2022/08/25 10:20:43;;;;;;;5.43;3.10;;;13.00;82.80;;;;;;5046616;28;20183;-76
2022/08/25 10:23:13;;;;;;;7.70;3.17;;;13.00;83.50;;;;;;5052022;28;20554;-75
2022/08/25 10:25:50;;;;;;;6.00;3.00;;;12.90;83.80;;;;;;5036103;28;20247;-76
2022/08/25 10:28:45;;;;;;;5.80;3.93;;;12.80;84.10;;;;;;5033377;28;20181;-76
2022/08/25 10:31:29;;;;;;;10.13;4.80;;;12.80;84.70;;;;;;5042780;28;20547;-76
2022/08/25 10:34:11;;;;;;;6.23;4.07;;;12.70;85.10;;;;;;5049683;28;20180;-76
2022/08/25 10:37:22;;;;;;;8.63;4.33;;;12.80;85.40;;;;;;5045848;28;20188;-76
2022/08/25 10:40:21;;;;;;;7.13;3.80;;;12.80;85.70;;;;;;5013324;28;20222;-76
2022/08/25 10:43:09;;;;;;;8.10;4.43;;;12.80;85.80;;;;;;5047716;28;20257;-75
2022/08/25 10:45:57;;;;;;;9.97;4.90;;;12.90;85.60;;;;;;5041082;28;20191;-76
2022/08/25 10:48:51;;;;;;;7.40;4.20;;;12.90;85.20;;;;;;5054347;28;20184;-77
2022/08/25 10:51:40;;;;;;;5.07;3.73;;;12.90;85.20;;;;;;5026146;28;20306;-76
2022/08/25 10:54:18;;;;;;;6.97;4.13;;;13.00;85.20;;;;;;5050357;28;20179;-77
2022/08/25 10:57:10;;;;;;;10.50;4.13;;;12.90;85.00;;;;;;5043540;28;20333;-77
2022/08/25 11:00:12;;;;;;;8.10;3.83;;;12.90;84.60;;;;;;5046855;28;20180;-75
2022/08/25 11:03:00;;;;;;;10.13;4.20;;;12.90;84.60;;;;;;5049565;28;20176;-77
2022/08/25 11:05:39;;;;;;;16.07;3.70;;;13.00;84.30;;;;;;5040704;28;20188;-77
2022/08/25 11:08:36;;;;;;;5.87;3.90;;;13.00;84.20;;;;;;5038599;28;20177;-78
2022/08/25 11:11:13;;;;;;;7.97;4.80;;;13.00;84.30;;;;;;5052268;28;20230;-76
2022/08/25 11:13:51;;;;;;;14.67;4.60;;;13.00;84.60;;;;;;5054700;28;20176;-77
2022/08/25 11:16:31;;;;;;;9.30;4.80;;;13.00;84.40;;;;;;5032952;28;20609;-75
2022/08/25 11:19:22;;;;;;;10.13;4.30;;;13.00;84.10;;;;;;5050728;28;20196;-76
2022/08/25 11:21:58;;;;;;;10.53;4.20;;;12.90;84.00;;;;;;5049840;28;20176;-76
2022/08/25 11:24:52;;;;;;;7.97;3.67;;;12.90;83.50;;;;;;5044717;28;20689;-76
2022/08/25 11:27:30;;;;;;;11.03;3.80;;;12.90;83.30;;;;;;5052160;28;20827;-77
2022/08/25 11:30:07;;;;;;;6.20;3.77;;;12.90;83.20;;;;;;5042371;28;20192;-77
2022/08/25 11:32:36;;;;;;;9.57;4.53;;;12.90;83.50;;;;;;5054192;28;20175;-77
2022/08/25 11:35:07;;;;;;;8.07;4.10;;;12.90;83.50;;;;;;5047619;28;20275;-77
2022/08/25 11:37:58;;;;;;;9.43;4.23;;;12.90;83.70;;;;;;5039772;28;20187;-76
2022/08/25 11:40:46;;;;;;;9.57;4.17;;;12.90;83.90;;;;;;5041980;28;20227;-77
2022/08/25 11:43:54;;;;;;;8.17;4.10;;;12.80;84.00;;;;;;5035522;28;20200;-76
2022/08/25 11:46:30;;;;;;;6.93;3.80;;;12.70;83.60;;;;;;5034752;28;20673;-76
2022/08/25 11:49:22;;;;;;;8.03;4.30;;;12.70;83.70;;;;;;5033850;28;20188;-76
2022/08/25 11:51:51;;;;;;;6.83;4.00;;;12.80;83.80;;;;;;5038692;28;20254;-76
2022/08/25 11:54:42;;;;;;;9.97;4.00;;;12.70;84.20;;;;;;5043937;28;20177;-76
2022/08/25 11:57:24;;;;;;;9.60;3.83;;;12.80;84.30;;;;;;5028287;28;20242;-77
2022/08/25 11:59:52;;;;;;;8.67;3.97;;;12.80;84.50;;;;;;5038216;28;20184;-78
2022/08/25 12:02:46;;;;;;;12.73;4.30;;;12.80;84.50;;;;;;5042695;28;20184;-77
2022/08/25 12:05:16;;;;;;;10.13;3.90;;;12.80;84.70;;;;;;5043335;28;20188;-76
2022/08/25 12:11:00;;;;;;;11.10;4.60;;;12.80;84.60;;;;;;5026004;28;20195;-76
2022/08/25 12:13:47;;;;;;;8.20;4.47;;;12.80;85.00;;;;;;5035289;28;20197;-76
2022/08/25 12:16:35;;;;;;;8.83;4.57;;;12.80;85.40;;;;;;5032063;28;20199;-76
2022/08/25 12:19:28;;;;;;;12.83;4.70;;;12.80;85.70;;;;;;5032984;28;20558;-76
2022/08/25 12:22:01;;;;;;;9.90;4.30;;;12.80;86.00;;;;;;5035662;28;20648;-76
2022/08/25 12:24:44;;;;;;;7.10;4.40;;;12.80;86.40;;;;;;5034275;28;20212;-76
2022/08/25 12:27:20;;;;;;;7.50;3.87;;;12.80;86.60;;;;;;5027079;28;20179;-75
2022/08/25 12:29:54;;;;;;;9.50;3.83;;;12.80;87.20;;;;;;5035372;28;20180;-76
2022/08/25 12:32:21;;;;;;;6.67;3.50;;;12.80;87.20;;;;;;5041175;28;20610;-77
2022/08/25 12:35:06;;;;;;;9.23;3.70;;;12.70;87.30;;;;;;5039498;28;20187;-77
2022/08/25 12:37:34;;;;;;;7.13;3.80;;;12.60;87.40;;;;;;5032959;28;20239;-76
2022/08/25 12:40:04;;;;;;;9.50;4.20;;;12.50;87.20;;;;;;5043048;28;20232;-76
2022/08/25 12:42:31;;;;;;;8.17;3.80;;;12.50;87.30;;;;;;5036092;28;20708;-76
2022/08/25 12:45:22;;;;;;;7.20;3.90;;;12.50;87.30;;;;;;5036748;28;20234;-77
2022/08/25 12:47:56;;;;;;;10.87;4.00;;;12.50;87.30;;;;;;5033757;28;20208;-76
2022/08/25 12:50:34;;;;;;;7.80;3.70;;;12.50;87.40;;;;;;5042290;28;20188;-77
2022/08/25 12:53:12;;;;;;;10.03;4.17;;;12.50;87.50;;;;;;5034282;28;20266;-75
2022/08/25 12:55:53;;;;;;;8.03;3.80;;;12.50;87.60;;;;;;5033053;28;20184;-77
2022/08/25 12:58:22;;;;;;;9.33;3.90;;;12.50;87.60;;;;;;5035492;28;20608;-77
2022/08/25 13:01:27;;;;;;;9.10;4.10;;;12.50;87.60;;;;;;5042360;28;20184;-77
2022/08/25 13:04:29;;;;;;;7.07;3.57;;;12.40;87.60;;;;;;5044027;28;20581;-77
2022/08/25 13:07:17;;;;;;;9.40;3.90;;;12.40;87.70;;;;;;5033512;28;20203;-77
2022/08/25 13:10:09;;;;;;;8.80;3.87;;;12.40;87.70;;;;;;5033158;28;20191;-76
2022/08/25 13:13:06;;;;;;;8.97;3.87;;;12.40;88.00;;;;;;5036409;28;20180;-76
2022/08/25 13:15:36;;;;;;;6.50;3.70;;;12.40;88.00;;;;;;5023063;28;20188;-76
2022/08/25 13:18:19;;;;;;;9.20;3.47;;;12.40;88.00;;;;;;5031063;28;20591;-76
2022/08/25 13:20:50;;;;;;;8.90;3.03;;;12.30;87.50;;;;;;5028613;28;20176;-75
2022/08/25 13:23:24;;;;;;;6.53;3.10;;;12.30;87.30;;;;;;5030221;28;20287;-75